createdAt,value
2018-02-18T00:00:37.888Z,94.30
2018-02-18T00:03:05.436Z,94.40
2018-02-18T00:05:33.024Z,94.40
2018-02-18T00:08:01.331Z,94.50
2018-02-18T00:10:28.918Z,94.50
2018-02-18T00:12:56.453Z,94.40
2018-02-18T00:15:24.040Z,94.50
2018-02-18T00:17:51.581Z,94.50
2018-02-18T00:20:19.253Z,94.50
2018-02-18T00:22:46.787Z,94.50
2018-02-18T00:25:14.372Z,94.60
2018-02-18T00:27:41.911Z,94.60
2018-02-18T00:30:09.497Z,94.60
2018-02-18T00:32:37.032Z,94.70
2018-02-18T00:35:04.615Z,94.70
2018-02-18T00:37:32.147Z,94.60
2018-02-18T00:39:59.744Z,94.70
2018-02-18T00:42:27.299Z,94.70
2018-02-18T00:44:54.881Z,94.70
2018-02-18T00:47:22.423Z,94.80
2018-02-18T00:49:50.012Z,94.80
2018-02-18T00:52:17.552Z,94.80
2018-02-18T00:54:45.131Z,94.80
2018-02-18T00:57:12.664Z,94.80
2018-02-18T00:59:40.249Z,94.80
2018-02-18T01:02:07.794Z,94.90
2018-02-18T01:04:35.378Z,95.00
2018-02-18T01:07:03.692Z,94.90
2018-02-18T01:09:31.280Z,94.90
2018-02-18T01:11:58.817Z,94.90
2018-02-18T01:14:26.419Z,94.90
2018-02-18T01:16:53.956Z,95.00
2018-02-18T01:19:21.496Z,95.00
2018-02-18T01:21:49.076Z,95.00
2018-02-18T01:24:16.659Z,95.00
2018-02-18T01:26:45.698Z,95.10
2018-02-18T01:29:13.303Z,95.00
2018-02-18T01:31:40.854Z,95.00
2018-02-18T01:34:08.440Z,95.10
2018-02-18T01:36:35.974Z,95.10
2018-02-18T01:39:03.559Z,95.10
2018-02-18T01:41:31.087Z,95.10
2018-02-18T01:43:58.692Z,95.10
2018-02-18T01:46:26.988Z,95.20
2018-02-18T01:48:54.674Z,95.10
2018-02-18T01:51:22.207Z,95.20
2018-02-18T01:53:49.797Z,95.20
2018-02-18T01:56:17.339Z,95.20
2018-02-18T01:58:44.923Z,95.20
2018-02-18T02:01:12.451Z,95.30
2018-02-18T02:03:40.036Z,95.30
2018-02-18T02:06:07.578Z,95.20
2018-02-18T02:08:35.165Z,95.20
2018-02-18T02:11:02.698Z,95.30
2018-02-18T02:13:30.289Z,95.30
2018-02-18T02:15:57.826Z,95.30
2018-02-18T02:18:25.446Z,95.30
2018-02-18T02:20:53.755Z,95.30
2018-02-18T02:23:21.341Z,95.30
2018-02-18T02:25:48.878Z,95.30
2018-02-18T02:28:16.465Z,95.40
2018-02-18T02:30:43.992Z,95.40
2018-02-18T02:33:11.577Z,95.40
2018-02-18T02:35:39.122Z,95.40
2018-02-18T02:38:06.719Z,95.40
2018-02-18T02:40:34.255Z,95.40
2018-02-18T02:43:01.845Z,95.50
2018-02-18T02:45:29.381Z,95.50
2018-02-18T02:47:57.143Z,95.50
2018-02-18T02:50:24.681Z,95.50
2018-02-18T02:52:52.270Z,95.50
2018-02-18T02:55:19.827Z,95.50
2018-02-18T02:57:47.360Z,95.60
2018-02-18T03:00:14.946Z,95.60
2018-02-18T03:02:42.537Z,95.60
2018-02-18T03:05:10.080Z,95.60
2018-02-18T03:07:37.666Z,95.60
2018-02-18T03:10:05.968Z,95.60
2018-02-18T03:12:33.552Z,95.60
2018-02-18T03:15:01.084Z,95.60
2018-02-18T03:17:28.671Z,95.60
2018-02-18T03:19:56.208Z,95.60
2018-02-18T03:22:23.792Z,95.70
2018-02-18T03:24:51.322Z,95.70
2018-02-18T03:27:18.904Z,95.70
2018-02-18T03:29:46.451Z,95.70
2018-02-18T03:32:14.067Z,95.70
2018-02-18T03:34:41.601Z,95.70
2018-02-18T03:37:09.151Z,95.70
2018-02-18T03:39:36.741Z,95.70
2018-02-18T03:42:04.364Z,95.70
2018-02-18T03:44:31.957Z,95.80
2018-02-18T03:46:59.498Z,95.80
2018-02-18T03:49:27.092Z,95.80
2018-02-18T03:51:54.636Z,95.80
2018-02-18T03:54:22.219Z,95.80
2018-02-18T03:56:50.574Z,95.90
2018-02-18T03:59:18.111Z,95.80
2018-02-18T04:01:45.698Z,95.90
2018-02-18T04:04:13.237Z,95.90
2018-02-18T04:06:40.821Z,95.80
2018-02-18T04:09:08.366Z,95.90
2018-02-18T04:11:35.954Z,95.80
2018-02-18T04:14:04.256Z,95.90
2018-02-18T04:16:31.851Z,95.90
2018-02-18T04:18:59.391Z,95.90
2018-02-18T04:21:26.927Z,95.90
2018-02-18T04:23:54.515Z,95.90
2018-02-18T04:26:22.093Z,96.00
2018-02-18T04:28:49.626Z,96.00
2018-02-18T04:31:17.210Z,96.00
2018-02-18T04:33:44.744Z,95.90
2018-02-18T04:36:12.338Z,95.90
2018-02-18T04:38:39.885Z,96.00
2018-02-18T04:41:07.414Z,95.90
2018-02-18T04:43:35.001Z,96.00
2018-02-18T04:46:03.362Z,95.90
2018-02-18T04:48:30.953Z,96.00
2018-02-18T04:50:58.492Z,96.00
2018-02-18T04:53:26.077Z,96.00
2018-02-18T04:55:53.611Z,96.40
2018-02-18T04:58:21.204Z,96.10
2018-02-18T05:00:48.746Z,96.10
2018-02-18T05:03:17.415Z,96.10
2018-02-18T05:05:44.958Z,96.10
2018-02-18T05:08:12.539Z,96.20
2018-02-18T05:10:40.080Z,96.10
2018-02-18T05:13:07.666Z,96.10
2018-02-18T05:15:35.199Z,96.20
2018-02-18T05:18:02.777Z,96.10
2018-02-18T05:20:30.320Z,96.20
2018-02-18T05:22:57.912Z,96.10
2018-02-18T05:25:25.443Z,96.10
2018-02-18T05:27:53.023Z,96.20
2018-02-18T05:30:20.554Z,96.20
2018-02-18T05:32:48.134Z,96.20
2018-02-18T05:35:15.673Z,96.20
2018-02-18T05:37:43.280Z,96.30
2018-02-18T05:40:10.817Z,96.20
2018-02-18T05:42:38.416Z,96.20
2018-02-18T05:45:05.953Z,96.20
2018-02-18T05:47:33.558Z,96.20
2018-02-18T05:50:01.867Z,96.20
2018-02-18T05:52:29.451Z,96.20
2018-02-18T05:54:56.986Z,96.30
2018-02-18T05:57:24.568Z,96.30
2018-02-18T05:59:52.101Z,96.30
2018-02-18T06:02:21.847Z,96.20
2018-02-18T06:04:49.444Z,96.30
2018-02-18T06:07:17.791Z,96.40
2018-02-18T06:09:45.332Z,96.30
2018-02-18T06:12:18.502Z,96.40
2018-02-18T06:14:47.784Z,96.70
2018-02-18T06:17:15.370Z,96.40
2018-02-18T06:19:42.910Z,96.30
2018-02-18T06:22:10.496Z,96.40
2018-02-18T06:24:38.040Z,96.30
2018-02-18T06:27:05.984Z,96.40
2018-02-18T06:29:34.290Z,96.40
2018-02-18T06:32:01.876Z,96.40
2018-02-18T06:34:35.657Z,96.40
2018-02-18T06:37:03.239Z,96.40
2018-02-18T06:39:30.776Z,96.40
2018-02-18T06:42:02.202Z,96.40
2018-02-18T06:44:31.360Z,96.40
2018-02-18T06:46:58.967Z,96.50
2018-02-18T06:49:28.101Z,96.50
2018-02-18T06:51:56.599Z,96.50
2018-02-18T06:54:24.209Z,96.40
2018-02-18T06:57:04.036Z,96.50
2018-02-18T06:59:32.336Z,96.50
2018-02-18T07:01:59.946Z,96.50
2018-02-18T07:04:27.493Z,96.50
2018-02-18T07:06:55.129Z,96.50
2018-02-18T07:09:23.756Z,96.50
2018-02-18T07:11:52.075Z,96.60
2018-02-18T07:14:19.661Z,96.50
2018-02-18T07:16:49.673Z,96.60
2018-02-18T07:19:17.256Z,96.50
2018-02-18T07:21:44.794Z,96.50
2018-02-18T07:24:12.380Z,96.50
2018-02-18T07:26:39.922Z,96.50
2018-02-18T07:29:09.610Z,96.50
2018-02-18T07:34:30.405Z,96.50
2018-02-18T07:36:59.113Z,96.60
2018-02-18T07:39:27.064Z,96.60
2018-02-18T07:42:21.193Z,96.60
2018-02-18T07:44:48.729Z,96.50
2018-02-18T07:47:17.580Z,96.60
2018-02-18T07:49:45.888Z,96.70
2018-02-18T07:52:13.472Z,96.60
2018-02-18T07:54:41.011Z,96.60
2018-02-18T07:57:10.680Z,96.60
2018-02-18T07:59:38.210Z,96.70
2018-02-18T08:02:12.592Z,96.70
2018-02-18T08:04:40.126Z,97.00
2018-02-18T08:07:10.493Z,96.60
2018-02-18T08:09:38.032Z,96.60
2018-02-18T08:15:10.128Z,96.70
2018-02-18T08:17:41.975Z,97.00
2018-02-18T08:20:09.533Z,96.70
2018-02-18T08:22:37.121Z,96.70
2018-02-18T08:25:04.659Z,96.70
2018-02-18T08:27:34.661Z,96.70
2018-02-18T08:30:02.972Z,96.80
2018-02-18T08:32:30.556Z,96.80
2018-02-18T08:34:58.190Z,96.80
2018-02-18T08:37:25.770Z,96.90
2018-02-18T08:39:53.311Z,96.90
2018-02-18T08:42:20.899Z,96.90
2018-02-18T08:44:48.433Z,96.80
2018-02-18T08:47:16.027Z,96.80
2018-02-18T08:49:43.569Z,97.20
2018-02-18T08:52:11.157Z,96.80
2018-02-18T08:54:38.696Z,96.90
2018-02-18T08:57:06.292Z,96.80
2018-02-18T08:59:34.598Z,96.90
2018-02-18T09:02:02.200Z,96.90
2018-02-18T09:04:29.744Z,96.90
2018-02-18T09:06:57.325Z,96.90
2018-02-18T09:09:26.363Z,96.90
2018-02-18T09:11:53.948Z,96.90
2018-02-18T09:14:21.480Z,96.90
2018-02-18T09:16:49.071Z,96.90
2018-02-18T09:19:16.613Z,96.90
2018-02-18T09:21:44.199Z,96.90
2018-02-18T09:24:11.731Z,96.90
2018-02-18T09:26:39.316Z,97.00
2018-02-18T09:29:06.856Z,97.00
2018-02-18T09:31:34.443Z,97.00
2018-02-18T09:34:01.989Z,97.00
2018-02-18T09:36:29.571Z,97.00
2018-02-18T09:38:57.156Z,97.00
2018-02-18T09:41:25.459Z,97.00
2018-02-18T09:43:53.068Z,97.00
2018-02-18T09:46:20.606Z,97.10
2018-02-18T09:48:48.212Z,97.10
2018-02-18T09:51:16.514Z,97.20
2018-02-18T09:53:44.052Z,97.10
2018-02-18T09:56:12.395Z,97.20
2018-02-18T09:58:39.931Z,97.10
2018-02-18T10:01:07.518Z,97.10
2018-02-18T10:03:35.100Z,97.10
2018-02-18T10:06:02.642Z,97.10
2018-02-18T10:08:30.223Z,97.10
2018-02-18T10:10:57.766Z,97.10
2018-02-18T10:13:25.308Z,97.10
2018-02-18T10:15:52.891Z,97.10
2018-02-18T10:18:21.944Z,97.20
2018-02-18T10:20:49.537Z,97.20
2018-02-18T10:23:17.072Z,97.10
2018-02-18T10:25:44.662Z,97.20
2018-02-18T10:28:12.290Z,97.20
2018-02-18T10:30:39.878Z,97.20
2018-02-18T10:33:08.189Z,97.10
2018-02-18T10:35:36.533Z,97.20
2018-02-18T10:38:04.078Z,97.10
2018-02-18T10:40:31.673Z,97.20
2018-02-18T10:42:59.976Z,97.20
2018-02-18T10:45:27.576Z,97.20
2018-02-18T10:47:55.119Z,97.20
2018-02-18T10:50:22.708Z,97.30
2018-02-18T10:52:50.241Z,97.20
2018-02-18T10:55:17.828Z,97.30
2018-02-18T10:57:45.365Z,97.30
2018-02-18T11:00:12.951Z,97.30
2018-02-18T11:02:40.497Z,97.30
2018-02-18T11:05:08.105Z,97.30
2018-02-18T11:07:35.651Z,97.30
2018-02-18T11:10:04.005Z,97.30
2018-02-18T11:12:31.538Z,97.30
2018-02-18T11:14:59.124Z,97.30
2018-02-18T11:17:26.661Z,97.40
2018-02-18T11:19:54.237Z,97.40
2018-02-18T11:22:21.773Z,97.50
2018-02-18T11:24:49.379Z,97.50
2018-02-18T11:27:16.918Z,97.50
2018-02-18T11:29:44.452Z,97.50
2018-02-18T11:32:12.033Z,97.50
2018-02-18T11:34:39.623Z,97.50
2018-02-18T11:37:07.927Z,97.50
2018-02-18T11:39:35.512Z,97.50
2018-02-18T11:42:03.067Z,97.50
2018-02-18T11:44:30.657Z,97.40
2018-02-18T11:46:58.191Z,97.40
2018-02-18T11:49:25.785Z,97.40
2018-02-18T11:51:53.365Z,97.40
2018-02-18T11:54:20.944Z,97.40
2018-02-18T11:56:48.478Z,97.40
2018-02-18T11:59:16.011Z,97.50
2018-02-18T12:01:43.604Z,97.50
2018-02-18T12:04:11.926Z,97.50
2018-02-18T12:06:39.513Z,97.50
2018-02-18T12:09:07.100Z,97.50
2018-02-18T12:11:35.406Z,97.50
2018-02-18T12:14:02.944Z,97.50
2018-02-18T12:16:31.302Z,97.50
2018-02-18T12:18:58.839Z,97.50
2018-02-18T12:21:26.426Z,97.60
2018-02-18T12:23:53.961Z,97.50
2018-02-18T12:26:21.550Z,97.50
2018-02-18T12:28:49.087Z,97.50
2018-02-18T12:31:16.669Z,97.50
2018-02-18T12:33:44.973Z,97.60
2018-02-18T12:36:12.564Z,97.60
2018-02-18T12:38:40.097Z,97.50
2018-02-18T12:41:07.684Z,97.50
2018-02-18T12:43:35.228Z,97.50
2018-02-18T12:46:02.814Z,97.50
2018-02-18T12:48:30.356Z,97.40
2018-02-18T12:50:58.057Z,97.40
2018-02-18T12:53:26.373Z,97.70
2018-02-18T12:55:53.956Z,97.70
2018-02-18T12:58:21.514Z,97.70
2018-02-18T13:00:49.105Z,97.90
2018-02-18T13:03:16.701Z,98.60
2018-02-18T13:05:45.005Z,98.50
2018-02-18T13:08:12.588Z,98.40
2018-02-18T13:10:40.126Z,97.70
2018-02-18T13:13:07.733Z,97.30
2018-02-18T13:15:36.123Z,97.00
2018-02-18T13:18:04.428Z,97.00
2018-02-18T13:20:32.015Z,97.00
2018-02-18T13:22:59.553Z,97.10
2018-02-18T13:25:27.142Z,97.30
2018-02-18T13:27:54.676Z,97.40
2018-02-18T13:30:22.269Z,97.50
2018-02-18T13:32:49.797Z,97.60
2018-02-18T13:35:17.379Z,97.70
2018-02-18T13:37:45.050Z,97.60
2018-02-18T13:40:12.639Z,97.70
2018-02-18T13:42:40.181Z,97.70
2018-02-18T13:45:07.783Z,97.70
2018-02-18T13:47:35.315Z,97.70
2018-02-18T13:50:02.903Z,97.70
2018-02-18T13:52:30.444Z,97.90
2018-02-18T13:54:58.792Z,97.60
2018-02-18T13:57:26.328Z,97.60
2018-02-18T13:59:53.925Z,97.60
2018-02-18T14:02:21.458Z,97.60
2018-02-18T14:04:49.055Z,97.50
2018-02-18T14:07:17.379Z,97.50
2018-02-18T14:09:44.971Z,97.40
2018-02-18T14:12:12.517Z,97.40
2018-02-18T14:14:40.284Z,97.50
2018-02-18T14:17:07.824Z,97.40
2018-02-18T14:19:35.402Z,97.40
2018-02-18T14:22:02.945Z,97.40
2018-02-18T14:24:30.553Z,97.50
2018-02-18T14:26:58.091Z,97.60
2018-02-18T14:29:25.681Z,98.00
2018-02-18T14:31:53.988Z,97.70
2018-02-18T14:34:21.597Z,97.70
2018-02-18T14:36:49.143Z,97.70
2018-02-18T14:39:16.950Z,97.70
2018-02-18T14:41:57.182Z,97.80
2018-02-18T14:44:36.570Z,97.80
2018-02-18T14:47:16.180Z,97.70
2018-02-18T14:49:56.348Z,97.70
2018-02-18T14:52:36.464Z,97.70
2018-02-18T14:55:29.788Z,97.80
2018-02-18T14:57:57.324Z,97.80
2018-02-18T15:00:25.673Z,97.80
2018-02-18T15:02:53.494Z,97.70
2018-02-18T15:05:21.080Z,97.70
2018-02-18T15:07:48.616Z,97.70
2018-02-18T15:10:16.207Z,97.70
2018-02-18T15:12:43.740Z,98.10
2018-02-18T15:15:11.353Z,97.70
2018-02-18T15:17:38.895Z,97.70
2018-02-18T15:20:07.032Z,97.70
2018-02-18T15:22:34.581Z,97.70
2018-02-18T15:25:02.185Z,97.70
2018-02-18T15:27:29.728Z,97.70
2018-02-18T15:29:57.371Z,97.70
2018-02-18T15:32:24.913Z,97.70
2018-02-18T15:34:52.804Z,97.70
2018-02-18T15:37:20.335Z,97.70
2018-02-18T15:39:47.880Z,97.80
2018-02-18T15:42:16.234Z,97.80
2018-02-18T15:44:43.773Z,97.80
2018-02-18T15:47:11.353Z,97.70
2018-02-18T15:49:38.901Z,97.80
2018-02-18T15:52:06.499Z,97.80
2018-02-18T15:54:35.019Z,97.80
2018-02-18T15:57:02.608Z,97.80
2018-02-18T15:59:30.150Z,97.80
2018-02-18T16:01:57.736Z,97.90
2018-02-18T16:04:25.462Z,97.90
2018-02-18T16:06:53.061Z,97.80
2018-02-18T16:09:20.603Z,97.90
2018-02-18T16:11:48.186Z,97.90
2018-02-18T16:14:15.723Z,98.00
2018-02-18T16:16:43.368Z,97.90
2018-02-18T16:19:10.914Z,97.80
2018-02-18T16:21:38.496Z,97.90
2018-02-18T16:24:06.038Z,98.00
2018-02-18T16:26:33.624Z,98.00
2018-02-18T16:29:01.159Z,98.10
2018-02-18T16:31:28.722Z,98.10
2018-02-18T16:34:08.270Z,98.00
2018-02-18T16:36:36.651Z,98.10
2018-02-18T16:39:04.192Z,98.10
2018-02-18T16:41:31.767Z,98.10
2018-02-18T16:43:59.301Z,98.10
2018-02-18T16:46:26.893Z,98.20
2018-02-18T16:48:54.437Z,98.00
2018-02-18T16:51:21.976Z,98.10
2018-02-18T16:53:49.570Z,98.00
2018-02-18T16:56:17.141Z,98.10
2018-02-18T16:58:44.707Z,98.00
2018-02-18T17:01:12.245Z,98.00
2018-02-18T17:03:39.831Z,98.10
2018-02-18T17:06:07.367Z,98.00
2018-02-18T17:08:34.909Z,98.00
2018-02-18T17:11:02.488Z,98.10
2018-02-18T17:13:30.056Z,98.00
2018-02-18T17:15:57.588Z,98.00
2018-02-18T17:18:25.177Z,98.00
2018-02-18T17:20:52.712Z,98.10
2018-02-18T17:23:20.256Z,98.10
2018-02-18T17:25:47.828Z,98.10
2018-02-18T17:28:15.361Z,98.10
2018-02-18T17:30:42.938Z,98.10
2018-02-18T17:33:10.669Z,98.10
2018-02-18T17:35:38.117Z,98.00
2018-02-18T17:38:05.657Z,98.00
2018-02-18T17:40:33.206Z,98.30
2018-02-18T17:43:00.773Z,98.00
2018-02-18T17:45:28.368Z,98.00
2018-02-18T17:47:56.711Z,97.90
2018-02-18T17:50:24.254Z,98.20
2018-02-18T17:52:51.793Z,97.90
2018-02-18T17:55:19.372Z,97.90
2018-02-18T17:57:46.907Z,97.90
2018-02-18T18:00:14.484Z,97.90
2018-02-18T18:02:42.062Z,98.00
2018-02-18T18:05:09.595Z,98.10
2018-02-18T18:07:37.180Z,98.00
2018-02-18T18:10:04.714Z,98.00
2018-02-18T18:12:32.293Z,98.00
2018-02-18T18:14:59.837Z,98.00
2018-02-18T18:17:27.409Z,98.00
2018-02-18T18:19:54.954Z,98.00
2018-02-18T18:22:22.497Z,98.00
2018-02-18T18:24:50.056Z,98.00
2018-02-18T18:27:17.629Z,98.00
2018-02-18T18:29:45.160Z,97.90
2018-02-18T18:32:13.498Z,98.00
2018-02-18T18:34:41.074Z,97.90
2018-02-18T18:37:08.607Z,98.00
2018-02-18T18:39:36.145Z,98.00
2018-02-18T18:42:03.719Z,98.00
2018-02-18T18:44:31.255Z,98.00
2018-02-18T18:46:58.823Z,98.00
2018-02-18T18:49:26.393Z,98.00
2018-02-18T18:51:53.963Z,97.90
2018-02-18T18:54:21.515Z,98.00
2018-02-18T18:56:49.092Z,98.00
2018-02-18T18:59:16.671Z,98.00
2018-02-18T19:01:44.211Z,98.00
2018-02-18T19:04:11.785Z,98.00
2018-02-18T19:06:39.346Z,98.00
2018-02-18T19:09:06.885Z,98.00
2018-02-18T19:11:34.476Z,98.00
2018-02-18T19:14:02.014Z,98.00
2018-02-18T19:16:29.550Z,98.00
2018-02-18T19:18:57.123Z,98.00
2018-02-18T19:21:24.661Z,98.00
2018-02-18T19:23:52.248Z,98.00
2018-02-18T19:26:19.805Z,98.00
2018-02-18T19:28:47.353Z,98.00
2018-02-18T19:31:14.932Z,98.00
2018-02-18T19:33:42.473Z,98.10
2018-02-18T19:36:10.335Z,98.10
2018-02-18T19:38:37.970Z,98.10
2018-02-18T19:41:05.508Z,98.10
2018-02-18T19:43:33.847Z,98.10
2018-02-18T19:46:01.428Z,98.10
2018-02-18T19:48:28.964Z,98.10
2018-02-18T19:50:56.619Z,98.10
2018-02-18T19:53:24.173Z,98.10
2018-02-18T19:55:51.721Z,98.10
2018-02-18T19:58:19.301Z,98.10
2018-02-18T20:00:46.840Z,98.10
2018-02-18T20:03:14.428Z,98.10
2018-02-18T20:05:41.967Z,98.20
2018-02-18T20:08:09.513Z,98.20
2018-02-18T20:10:37.085Z,98.10
2018-02-18T20:13:04.622Z,98.20
2018-02-18T20:15:32.200Z,98.20
2018-02-18T20:17:59.743Z,98.20
2018-02-18T20:20:27.280Z,98.20
2018-02-18T20:22:55.619Z,98.10
2018-02-18T20:25:23.192Z,98.10
2018-02-18T20:27:50.730Z,98.10
2018-02-18T20:30:18.299Z,98.10
2018-02-18T20:32:45.838Z,98.10
2018-02-18T20:35:13.416Z,98.10
2018-02-18T20:37:40.951Z,98.10
2018-02-18T20:40:08.521Z,98.10
2018-02-18T20:42:36.064Z,98.10
2018-02-18T20:45:03.647Z,98.10
2018-02-18T20:47:31.193Z,98.10
2018-02-18T20:49:58.723Z,98.10
2018-02-18T20:52:27.109Z,98.10
2018-02-18T20:54:55.453Z,98.10
2018-02-18T20:57:22.991Z,98.40
2018-02-18T20:59:50.528Z,98.10
2018-02-18T21:02:18.097Z,98.10
2018-02-18T21:04:45.634Z,98.10
2018-02-18T21:07:13.208Z,98.00
2018-02-18T21:09:40.781Z,98.00
2018-02-18T21:12:08.333Z,98.00
2018-02-18T21:14:35.909Z,98.10
2018-02-18T21:17:03.555Z,98.10
2018-02-18T21:19:31.161Z,98.10
2018-02-18T21:21:58.748Z,98.10
2018-02-18T21:24:26.325Z,98.10
2018-02-18T21:26:53.892Z,98.10
2018-02-18T21:29:21.559Z,98.10
2018-02-18T21:31:49.167Z,98.10
2018-02-18T21:34:16.705Z,98.00
2018-02-18T21:36:44.288Z,98.00
2018-02-18T21:39:11.873Z,98.00
2018-02-18T21:41:40.247Z,98.00
2018-02-18T21:44:08.552Z,98.00
2018-02-18T21:46:36.123Z,98.00
2018-02-18T21:49:03.687Z,98.00
2018-02-18T21:51:31.262Z,98.00
2018-02-18T21:53:58.831Z,98.00
2018-02-18T21:56:26.413Z,98.00
2018-02-18T21:58:54.739Z,98.00
2018-02-18T22:01:22.312Z,98.00
2018-02-18T22:03:49.952Z,98.00
2018-02-18T22:06:17.488Z,98.00
2018-02-18T22:08:45.082Z,97.90
2018-02-18T22:11:12.612Z,97.90
2018-02-18T22:13:40.192Z,97.90
2018-02-18T22:16:07.723Z,97.90
2018-02-18T22:18:36.072Z,97.90
2018-02-18T22:21:03.609Z,97.90
2018-02-18T22:23:31.180Z,97.90
2018-02-18T22:25:58.713Z,97.90
2018-02-18T22:28:26.329Z,98.00
2018-02-18T22:30:54.673Z,98.00
2018-02-18T22:33:22.228Z,97.90
2018-02-18T22:35:49.801Z,98.00
2018-02-18T22:38:17.368Z,98.00
2018-02-18T22:40:44.908Z,98.00
2018-02-18T22:43:12.464Z,98.00
2018-02-18T22:45:40.057Z,97.90
2018-02-18T22:48:08.364Z,97.90
2018-02-18T22:50:35.903Z,97.80
2018-02-18T22:53:04.258Z,97.90
2018-02-18T22:55:31.796Z,97.80
2018-02-18T22:57:59.335Z,97.90
2018-02-18T23:00:26.905Z,97.90
2018-02-18T23:02:54.440Z,97.90
2018-02-18T23:05:27.787Z,97.90
2018-02-18T23:07:56.093Z,97.90
2018-02-18T23:10:24.437Z,97.90
2018-02-18T23:12:51.991Z,97.90
2018-02-18T23:15:19.522Z,97.90
2018-02-18T23:17:47.092Z,97.90
2018-02-18T23:20:14.653Z,97.90
2018-02-18T23:22:42.188Z,97.90
2018-02-18T23:25:10.529Z,98.00
2018-02-18T23:27:38.063Z,97.90
2018-02-18T23:30:05.657Z,97.90
2018-02-18T23:32:33.959Z,97.90
2018-02-18T23:35:01.492Z,97.90
2018-02-18T23:37:29.828Z,97.90
2018-02-18T23:39:57.398Z,97.90
2018-02-18T23:42:24.934Z,98.00
2018-02-18T23:44:52.509Z,97.90
2018-02-18T23:47:20.086Z,97.90
2018-02-18T23:49:47.660Z,97.90
2018-02-18T23:52:15.197Z,97.90
2018-02-18T23:54:42.833Z,97.90
2018-02-18T23:57:10.364Z,97.90
2018-02-18T23:59:38.705Z,97.90
